sensor_id;sensor_type;location;lat;lon;timestamp;P1;durP1;ratioP1;P2;durP2;ratioP2
40471;SDS011;26174;42.908;23.800;2023-07-28T00:00:09;4.57;;;3.83;;
40471;SDS011;26174;42.908;23.800;2023-07-28T00:02:34;4.75;;;3.90;;
40471;SDS011;26174;42.908;23.800;2023-07-28T00:05:00;4.30;;;3.65;;
40471;SDS011;26174;42.908;23.800;2023-07-28T00:07:26;6.75;;;3.80;;
40471;SDS011;26174;42.908;23.800;2023-07-28T00:09:51;8.25;;;3.80;;
40471;SDS011;26174;42.908;23.800;2023-07-28T00:12:16;5.13;;;3.42;;
40471;SDS011;26174;42.908;23.800;2023-07-28T00:14:42;5.78;;;3.55;;
40471;SDS011;26174;42.908;23.800;2023-07-28T00:17:07;5.82;;;3.70;;
40471;SDS011;26174;42.908;23.800;2023-07-28T00:19:33;5.43;;;3.67;;
40471;SDS011;26174;42.908;23.800;2023-07-28T00:21:58;5.20;;;3.72;;
40471;SDS011;26174;42.908;23.800;2023-07-28T00:24:24;5.97;;;3.47;;
40471;SDS011;26174;42.908;23.800;2023-07-28T00:26:49;7.03;;;3.78;;
40471;SDS011;26174;42.908;23.800;2023-07-28T00:29:15;11.90;;;3.70;;
40471;SDS011;26174;42.908;23.800;2023-07-28T00:31:40;3.95;;;3.20;;
40471;SDS011;26174;42.908;23.800;2023-07-28T00:34:06;4.57;;;3.72;;
40471;SDS011;26174;42.908;23.800;2023-07-28T00:36:32;7.97;;;4.00;;
40471;SDS011;26174;42.908;23.800;2023-07-28T00:38:58;4.88;;;3.90;;
40471;SDS011;26174;42.908;23.800;2023-07-28T00:41:23;8.00;;;3.75;;
40471;SDS011;26174;42.908;23.800;2023-07-28T00:43:49;6.25;;;3.60;;
40471;SDS011;26174;42.908;23.800;2023-07-28T00:46:14;6.78;;;3.90;;
40471;SDS011;26174;42.908;23.800;2023-07-28T00:48:41;7.13;;;3.83;;
40471;SDS011;26174;42.908;23.800;2023-07-28T00:51:10;4.10;;;3.67;;
40471;SDS011;26174;42.908;23.800;2023-07-28T00:53:35;4.15;;;3.58;;
40471;SDS011;26174;42.908;23.800;2023-07-28T00:56:01;3.80;;;3.40;;
40471;SDS011;26174;42.908;23.800;2023-07-28T00:58:27;4.18;;;3.63;;
40471;SDS011;26174;42.908;23.800;2023-07-28T01:00:53;4.13;;;3.72;;
40471;SDS011;26174;42.908;23.800;2023-07-28T01:03:18;4.32;;;3.63;;
40471;SDS011;26174;42.908;23.800;2023-07-28T01:08:19;5.18;;;3.47;;
40471;SDS011;26174;42.908;23.800;2023-07-28T01:10:48;5.05;;;3.42;;
40471;SDS011;26174;42.908;23.800;2023-07-28T01:13:13;5.15;;;4.00;;
40471;SDS011;26174;42.908;23.800;2023-07-28T01:15:39;4.55;;;3.80;;
40471;SDS011;26174;42.908;23.800;2023-07-28T01:18:04;4.03;;;3.58;;
40471;SDS011;26174;42.908;23.800;2023-07-28T01:20:31;6.10;;;3.85;;
40471;SDS011;26174;42.908;23.800;2023-07-28T01:23:07;6.50;;;4.07;;
40471;SDS011;26174;42.908;23.800;2023-07-28T01:28:12;4.85;;;4.13;;
40471;SDS011;26174;42.908;23.800;2023-07-28T01:30:38;5.40;;;3.80;;
40471;SDS011;26174;42.908;23.800;2023-07-28T01:33:07;4.45;;;3.53;;
40471;SDS011;26174;42.908;23.800;2023-07-28T01:35:34;5.07;;;3.88;;
40471;SDS011;26174;42.908;23.800;2023-07-28T01:38:01;3.85;;;3.30;;
40471;SDS011;26174;42.908;23.800;2023-07-28T01:40:26;5.75;;;4.03;;
40471;SDS011;26174;42.908;23.800;2023-07-28T01:42:52;4.90;;;3.65;;
40471;SDS011;26174;42.908;23.800;2023-07-28T01:45:17;5.05;;;3.95;;
40471;SDS011;26174;42.908;23.800;2023-07-28T01:47:43;7.63;;;4.50;;
40471;SDS011;26174;42.908;23.800;2023-07-28T01:50:08;5.43;;;4.70;;
40471;SDS011;26174;42.908;23.800;2023-07-28T01:52:34;5.85;;;4.25;;
40471;SDS011;26174;42.908;23.800;2023-07-28T01:54:59;5.07;;;4.25;;
40471;SDS011;26174;42.908;23.800;2023-07-28T01:57:26;5.10;;;4.10;;
40471;SDS011;26174;42.908;23.800;2023-07-28T01:59:53;6.38;;;4.55;;
40471;SDS011;26174;42.908;23.800;2023-07-28T02:02:19;7.05;;;4.20;;
40471;SDS011;26174;42.908;23.800;2023-07-28T02:04:44;7.68;;;4.13;;
40471;SDS011;26174;42.908;23.800;2023-07-28T02:07:10;4.90;;;4.38;;
40471;SDS011;26174;42.908;23.800;2023-07-28T02:09:35;6.47;;;4.32;;
40471;SDS011;26174;42.908;23.800;2023-07-28T02:12:01;5.90;;;4.30;;
40471;SDS011;26174;42.908;23.800;2023-07-28T02:14:26;6.25;;;3.80;;
40471;SDS011;26174;42.908;23.800;2023-07-28T02:16:52;5.28;;;3.65;;
40471;SDS011;26174;42.908;23.800;2023-07-28T02:19:17;16.50;;;4.03;;
40471;SDS011;26174;42.908;23.800;2023-07-28T02:21:43;12.52;;;4.15;;
40471;SDS011;26174;42.908;23.800;2023-07-28T02:24:08;5.13;;;3.80;;
40471;SDS011;26174;42.908;23.800;2023-07-28T02:26:34;8.63;;;4.05;;
40471;SDS011;26174;42.908;23.800;2023-07-28T02:28:59;13.48;;;3.75;;
40471;SDS011;26174;42.908;23.800;2023-07-28T02:31:25;11.38;;;4.20;;
40471;SDS011;26174;42.908;23.800;2023-07-28T02:33:50;9.77;;;4.20;;
40471;SDS011;26174;42.908;23.800;2023-07-28T02:36:16;8.80;;;4.35;;
40471;SDS011;26174;42.908;23.800;2023-07-28T02:38:41;5.05;;;3.90;;
40471;SDS011;26174;42.908;23.800;2023-07-28T02:41:07;8.48;;;4.53;;
40471;SDS011;26174;42.908;23.800;2023-07-28T02:43:32;7.35;;;3.88;;
40471;SDS011;26174;42.908;23.800;2023-07-28T02:45:58;12.63;;;4.10;;
40471;SDS011;26174;42.908;23.800;2023-07-28T02:48:24;6.50;;;3.90;;
40471;SDS011;26174;42.908;23.800;2023-07-28T02:50:50;10.10;;;4.75;;
40471;SDS011;26174;42.908;23.800;2023-07-28T02:53:17;5.00;;;4.13;;
40471;SDS011;26174;42.908;23.800;2023-07-28T02:55:46;29.23;;;5.55;;
40471;SDS011;26174;42.908;23.800;2023-07-28T02:58:12;10.48;;;5.05;;
40471;SDS011;26174;42.908;23.800;2023-07-28T03:00:42;20.70;;;8.20;;
40471;SDS011;26174;42.908;23.800;2023-07-28T03:03:09;62.40;;;16.63;;
40471;SDS011;26174;42.908;23.800;2023-07-28T03:05:38;17.23;;;6.32;;
40471;SDS011;26174;42.908;23.800;2023-07-28T03:08:04;8.13;;;4.85;;
40471;SDS011;26174;42.908;23.800;2023-07-28T03:10:30;23.45;;;8.23;;
40471;SDS011;26174;42.908;23.800;2023-07-28T03:12:56;16.60;;;7.20;;
40471;SDS011;26174;42.908;23.800;2023-07-28T03:15:22;14.38;;;5.93;;
40471;SDS011;26174;42.908;23.800;2023-07-28T03:17:48;11.75;;;5.68;;
40471;SDS011;26174;42.908;23.800;2023-07-28T03:20:14;9.18;;;4.60;;
40471;SDS011;26174;42.908;23.800;2023-07-28T03:22:40;10.77;;;4.78;;
40471;SDS011;26174;42.908;23.800;2023-07-28T03:25:05;13.90;;;4.63;;
40471;SDS011;26174;42.908;23.800;2023-07-28T03:27:31;7.90;;;4.60;;
40471;SDS011;26174;42.908;23.800;2023-07-28T03:29:57;8.07;;;4.35;;
40471;SDS011;26174;42.908;23.800;2023-07-28T03:32:22;9.25;;;4.40;;
40471;SDS011;26174;42.908;23.800;2023-07-28T03:34:48;9.80;;;4.95;;
40471;SDS011;26174;42.908;23.800;2023-07-28T03:37:13;15.25;;;4.75;;
40471;SDS011;26174;42.908;23.800;2023-07-28T03:39:39;15.48;;;4.00;;
40471;SDS011;26174;42.908;23.800;2023-07-28T03:42:04;8.55;;;3.85;;
40471;SDS011;26174;42.908;23.800;2023-07-28T03:44:30;6.45;;;4.00;;
40471;SDS011;26174;42.908;23.800;2023-07-28T03:46:56;7.40;;;3.85;;
40471;SDS011;26174;42.908;23.800;2023-07-28T03:49:21;20.90;;;4.53;;
40471;SDS011;26174;42.908;23.800;2023-07-28T03:51:47;15.13;;;5.80;;
40471;SDS011;26174;42.908;23.800;2023-07-28T03:54:12;10.27;;;4.65;;
40471;SDS011;26174;42.908;23.800;2023-07-28T03:56:37;13.43;;;4.75;;
40471;SDS011;26174;42.908;23.800;2023-07-28T03:59:03;14.50;;;5.25;;
40471;SDS011;26174;42.908;23.800;2023-07-28T04:01:29;11.10;;;5.03;;
40471;SDS011;26174;42.908;23.800;2023-07-28T04:03:54;24.73;;;6.38;;
40471;SDS011;26174;42.908;23.800;2023-07-28T04:06:35;20.90;;;5.90;;
40471;SDS011;26174;42.908;23.800;2023-07-28T04:09:17;12.45;;;5.35;;
40471;SDS011;26174;42.908;23.800;2023-07-28T04:11:43;10.75;;;5.50;;
40471;SDS011;26174;42.908;23.800;2023-07-28T04:14:09;9.82;;;5.40;;
40471;SDS011;26174;42.908;23.800;2023-07-28T04:16:35;22.80;;;5.95;;
40471;SDS011;26174;42.908;23.800;2023-07-28T04:19:00;13.07;;;6.00;;
40471;SDS011;26174;42.908;23.800;2023-07-28T04:21:26;17.17;;;5.78;;
40471;SDS011;26174;42.908;23.800;2023-07-28T04:23:52;6.75;;;4.47;;
40471;SDS011;26174;42.908;23.800;2023-07-28T04:26:17;13.52;;;5.15;;
40471;SDS011;26174;42.908;23.800;2023-07-28T04:28:43;10.75;;;5.07;;
40471;SDS011;26174;42.908;23.800;2023-07-28T04:31:09;13.02;;;5.50;;
40471;SDS011;26174;42.908;23.800;2023-07-28T04:33:34;6.95;;;4.30;;
40471;SDS011;26174;42.908;23.800;2023-07-28T04:36:02;12.10;;;5.00;;
40471;SDS011;26174;42.908;23.800;2023-07-28T04:38:28;7.05;;;3.88;;
40471;SDS011;26174;42.908;23.800;2023-07-28T04:40:54;12.75;;;4.18;;
40471;SDS011;26174;42.908;23.800;2023-07-28T04:43:19;5.80;;;4.10;;
40471;SDS011;26174;42.908;23.800;2023-07-28T04:45:45;12.05;;;5.25;;
40471;SDS011;26174;42.908;23.800;2023-07-28T04:48:10;11.55;;;4.70;;
40471;SDS011;26174;42.908;23.800;2023-07-28T04:50:36;10.57;;;4.82;;
40471;SDS011;26174;42.908;23.800;2023-07-28T04:53:02;34.95;;;9.02;;
40471;SDS011;26174;42.908;23.800;2023-07-28T04:55:27;13.18;;;5.30;;
40471;SDS011;26174;42.908;23.800;2023-07-28T04:57:53;12.35;;;4.10;;
40471;SDS011;26174;42.908;23.800;2023-07-28T05:00:19;6.20;;;4.10;;
40471;SDS011;26174;42.908;23.800;2023-07-28T05:02:44;8.80;;;4.68;;
40471;SDS011;26174;42.908;23.800;2023-07-28T05:05:10;5.35;;;3.70;;
40471;SDS011;26174;42.908;23.800;2023-07-28T05:07:35;6.97;;;4.20;;
40471;SDS011;26174;42.908;23.800;2023-07-28T05:10:01;11.80;;;6.13;;
40471;SDS011;26174;42.908;23.800;2023-07-28T05:12:26;41.22;;;15.60;;
40471;SDS011;26174;42.908;23.800;2023-07-28T05:14:52;30.40;;;13.95;;
40471;SDS011;26174;42.908;23.800;2023-07-28T05:17:18;22.80;;;11.77;;
40471;SDS011;26174;42.908;23.800;2023-07-28T05:19:44;15.20;;;7.97;;
40471;SDS011;26174;42.908;23.800;2023-07-28T05:22:09;10.98;;;7.13;;
40471;SDS011;26174;42.908;23.800;2023-07-28T05:24:35;7.95;;;5.70;;
40471;SDS011;26174;42.908;23.800;2023-07-28T05:27:00;8.20;;;6.30;;
40471;SDS011;26174;42.908;23.800;2023-07-28T05:29:26;9.85;;;5.72;;
40471;SDS011;26174;42.908;23.800;2023-07-28T05:31:51;21.45;;;6.22;;
40471;SDS011;26174;42.908;23.800;2023-07-28T05:34:17;36.63;;;6.57;;
40471;SDS011;26174;42.908;23.800;2023-07-28T05:36:43;12.73;;;4.70;;
40471;SDS011;26174;42.908;23.800;2023-07-28T05:39:09;15.93;;;4.50;;
40471;SDS011;26174;42.908;23.800;2023-07-28T05:41:35;11.48;;;4.13;;
40471;SDS011;26174;42.908;23.800;2023-07-28T05:44:02;12.38;;;4.40;;
40471;SDS011;26174;42.908;23.800;2023-07-28T05:46:28;9.60;;;3.70;;
40471;SDS011;26174;42.908;23.800;2023-07-28T05:48:54;14.43;;;3.60;;
40471;SDS011;26174;42.908;23.800;2023-07-28T05:51:20;14.50;;;4.05;;
40471;SDS011;26174;42.908;23.800;2023-07-28T05:53:46;8.43;;;3.97;;
40471;SDS011;26174;42.908;23.800;2023-07-28T05:56:12;9.25;;;4.38;;
40471;SDS011;26174;42.908;23.800;2023-07-28T05:58:37;12.70;;;4.63;;
40471;SDS011;26174;42.908;23.800;2023-07-28T06:01:03;18.02;;;3.60;;
40471;SDS011;26174;42.908;23.800;2023-07-28T06:03:28;26.90;;;3.58;;
40471;SDS011;26174;42.908;23.800;2023-07-28T06:05:54;13.48;;;3.67;;
40471;SDS011;26174;42.908;23.800;2023-07-28T06:08:20;8.80;;;3.35;;
40471;SDS011;26174;42.908;23.800;2023-07-28T06:10:45;5.65;;;4.53;;
40471;SDS011;26174;42.908;23.800;2023-07-28T06:13:10;6.22;;;3.45;;
40471;SDS011;26174;42.908;23.800;2023-07-28T06:15:38;4.13;;;3.45;;
40471;SDS011;26174;42.908;23.800;2023-07-28T06:18:04;6.03;;;3.38;;
40471;SDS011;26174;42.908;23.800;2023-07-28T06:20:30;31.92;;;9.18;;
40471;SDS011;26174;42.908;23.800;2023-07-28T06:22:55;13.15;;;4.07;;
40471;SDS011;26174;42.908;23.800;2023-07-28T06:25:21;8.48;;;4.30;;
40471;SDS011;26174;42.908;23.800;2023-07-28T06:27:47;6.85;;;3.50;;
40471;SDS011;26174;42.908;23.800;2023-07-28T06:30:12;5.75;;;4.35;;
40471;SDS011;26174;42.908;23.800;2023-07-28T06:32:38;7.35;;;3.85;;
40471;SDS011;26174;42.908;23.800;2023-07-28T06:35:03;10.07;;;3.67;;
40471;SDS011;26174;42.908;23.800;2023-07-28T06:37:30;11.80;;;4.00;;
40471;SDS011;26174;42.908;23.800;2023-07-28T06:39:56;6.15;;;3.42;;
40471;SDS011;26174;42.908;23.800;2023-07-28T06:42:21;4.57;;;3.38;;
40471;SDS011;26174;42.908;23.800;2023-07-28T06:44:49;20.88;;;4.03;;
40471;SDS011;26174;42.908;23.800;2023-07-28T06:47:16;4.63;;;3.45;;
40471;SDS011;26174;42.908;23.800;2023-07-28T06:49:42;5.00;;;3.00;;
40471;SDS011;26174;42.908;23.800;2023-07-28T06:52:07;7.03;;;3.17;;
40471;SDS011;26174;42.908;23.800;2023-07-28T06:54:33;4.55;;;3.13;;
40471;SDS011;26174;42.908;23.800;2023-07-28T06:56:59;6.90;;;3.05;;
40471;SDS011;26174;42.908;23.800;2023-07-28T06:59:25;8.00;;;3.17;;
40471;SDS011;26174;42.908;23.800;2023-07-28T07:01:50;3.42;;;3.13;;
40471;SDS011;26174;42.908;23.800;2023-07-28T07:04:16;12.50;;;3.20;;
40471;SDS011;26174;42.908;23.800;2023-07-28T07:06:42;20.60;;;4.00;;
40471;SDS011;26174;42.908;23.800;2023-07-28T07:09:07;12.75;;;3.40;;
40471;SDS011;26174;42.908;23.800;2023-07-28T07:11:33;9.43;;;2.90;;
40471;SDS011;26174;42.908;23.800;2023-07-28T07:14:01;6.18;;;3.70;;
40471;SDS011;26174;42.908;23.800;2023-07-28T07:16:27;9.50;;;2.90;;
40471;SDS011;26174;42.908;23.800;2023-07-28T07:18:52;3.00;;;2.67;;
40471;SDS011;26174;42.908;23.800;2023-07-28T07:21:18;7.38;;;2.92;;
40471;SDS011;26174;42.908;23.800;2023-07-28T07:23:43;15.30;;;3.33;;
40471;SDS011;26174;42.908;23.800;2023-07-28T07:26:09;10.43;;;2.97;;
40471;SDS011;26174;42.908;23.800;2023-07-28T07:28:34;19.33;;;3.53;;
40471;SDS011;26174;42.908;23.800;2023-07-28T07:31:00;8.13;;;3.60;;
40471;SDS011;26174;42.908;23.800;2023-07-28T07:33:26;5.40;;;2.75;;
40471;SDS011;26174;42.908;23.800;2023-07-28T07:35:52;10.82;;;3.20;;
40471;SDS011;26174;42.908;23.800;2023-07-28T07:38:18;16.40;;;3.42;;
40471;SDS011;26174;42.908;23.800;2023-07-28T07:40:47;7.72;;;4.50;;
40471;SDS011;26174;42.908;23.800;2023-07-28T07:43:13;5.32;;;3.05;;
40471;SDS011;26174;42.908;23.800;2023-07-28T07:45:44;2.53;;;1.80;;
40471;SDS011;26174;42.908;23.800;2023-07-28T07:48:12;8.13;;;6.13;;
40471;SDS011;26174;42.908;23.800;2023-07-28T07:50:38;4.75;;;1.70;;
40471;SDS011;26174;42.908;23.800;2023-07-28T07:53:03;2.63;;;1.80;;
40471;SDS011;26174;42.908;23.800;2023-07-28T07:55:29;4.43;;;2.45;;
40471;SDS011;26174;42.908;23.800;2023-07-28T07:57:56;4.93;;;2.03;;
40471;SDS011;26174;42.908;23.800;2023-07-28T08:00:22;2.72;;;1.83;;
40471;SDS011;26174;42.908;23.800;2023-07-28T08:02:49;2.30;;;1.85;;
40471;SDS011;26174;42.908;23.800;2023-07-28T08:05:15;7.82;;;2.17;;
40471;SDS011;26174;42.908;23.800;2023-07-28T08:07:40;6.97;;;1.77;;
40471;SDS011;26174;42.908;23.800;2023-07-28T08:10:06;8.73;;;2.15;;
40471;SDS011;26174;42.908;23.800;2023-07-28T08:12:32;3.78;;;1.70;;
40471;SDS011;26174;42.908;23.800;2023-07-28T08:14:57;14.93;;;2.42;;
40471;SDS011;26174;42.908;23.800;2023-07-28T08:17:23;7.35;;;2.10;;
40471;SDS011;26174;42.908;23.800;2023-07-28T08:19:49;4.75;;;2.10;;
40471;SDS011;26174;42.908;23.800;2023-07-28T08:22:14;23.55;;;3.60;;
40471;SDS011;26174;42.908;23.800;2023-07-28T08:24:40;2.03;;;1.75;;
40471;SDS011;26174;42.908;23.800;2023-07-28T08:27:05;18.38;;;2.53;;
40471;SDS011;26174;42.908;23.800;2023-07-28T08:29:31;2.72;;;2.05;;
40471;SDS011;26174;42.908;23.800;2023-07-28T08:31:56;4.85;;;1.80;;
40471;SDS011;26174;42.908;23.800;2023-07-28T08:34:22;4.88;;;1.75;;
40471;SDS011;26174;42.908;23.800;2023-07-28T08:36:47;3.60;;;1.90;;
40471;SDS011;26174;42.908;23.800;2023-07-28T08:39:13;2.10;;;1.90;;
40471;SDS011;26174;42.908;23.800;2023-07-28T08:41:40;2.42;;;1.80;;
40471;SDS011;26174;42.908;23.800;2023-07-28T08:44:06;3.92;;;1.90;;
40471;SDS011;26174;42.908;23.800;2023-07-28T08:46:32;5.10;;;2.17;;
40471;SDS011;26174;42.908;23.800;2023-07-28T08:48:59;7.18;;;2.60;;
40471;SDS011;26174;42.908;23.800;2023-07-28T08:51:25;6.72;;;2.10;;
40471;SDS011;26174;42.908;23.800;2023-07-28T08:53:50;2.63;;;1.90;;
40471;SDS011;26174;42.908;23.800;2023-07-28T08:56:16;6.15;;;1.67;;
40471;SDS011;26174;42.908;23.800;2023-07-28T08:58:41;2.00;;;1.80;;
40471;SDS011;26174;42.908;23.800;2023-07-28T09:01:07;6.63;;;2.03;;
40471;SDS011;26174;42.908;23.800;2023-07-28T09:03:32;12.73;;;2.65;;
40471;SDS011;26174;42.908;23.800;2023-07-28T09:06:02;3.00;;;2.10;;
40471;SDS011;26174;42.908;23.800;2023-07-28T09:08:30;7.13;;;2.35;;
40471;SDS011;26174;42.908;23.800;2023-07-28T09:10:56;8.02;;;2.20;;
40471;SDS011;26174;42.908;23.800;2023-07-28T09:13:21;17.33;;;2.40;;
40471;SDS011;26174;42.908;23.800;2023-07-28T09:15:47;2.35;;;1.73;;
40471;SDS011;26174;42.908;23.800;2023-07-28T09:18:15;4.05;;;2.05;;
40471;SDS011;26174;42.908;23.800;2023-07-28T09:20:42;4.20;;;1.98;;
40471;SDS011;26174;42.908;23.800;2023-07-28T09:23:09;3.08;;;1.90;;
40471;SDS011;26174;42.908;23.800;2023-07-28T09:25:35;2.80;;;1.90;;
40471;SDS011;26174;42.908;23.800;2023-07-28T09:28:02;5.50;;;2.03;;
40471;SDS011;26174;42.908;23.800;2023-07-28T09:30:42;1.92;;;1.80;;
40471;SDS011;26174;42.908;23.800;2023-07-28T09:35:34;10.30;;;3.03;;
40471;SDS011;26174;42.908;23.800;2023-07-28T09:38:00;6.80;;;2.08;;
40471;SDS011;26174;42.908;23.800;2023-07-28T09:40:26;5.13;;;2.35;;
40471;SDS011;26174;42.908;23.800;2023-07-28T09:42:53;9.18;;;2.95;;
40471;SDS011;26174;42.908;23.800;2023-07-28T09:45:20;12.65;;;2.33;;
40471;SDS011;26174;42.908;23.800;2023-07-28T09:47:47;4.30;;;2.38;;
40471;SDS011;26174;42.908;23.800;2023-07-28T09:50:14;18.65;;;9.45;;
40471;SDS011;26174;42.908;23.800;2023-07-28T09:52:46;9.77;;;2.60;;
40471;SDS011;26174;42.908;23.800;2023-07-28T09:55:12;26.85;;;8.73;;
40471;SDS011;26174;42.908;23.800;2023-07-28T09:58:13;3.75;;;2.30;;
40471;SDS011;26174;42.908;23.800;2023-07-28T10:00:32;4.22;;;2.20;;
40471;SDS011;26174;42.908;23.800;2023-07-28T10:02:58;3.38;;;2.10;;
40471;SDS011;26174;42.908;23.800;2023-07-28T10:05:24;2.33;;;1.77;;
40471;SDS011;26174;42.908;23.800;2023-07-28T10:07:49;2.85;;;1.95;;
40471;SDS011;26174;42.908;23.800;2023-07-28T10:10:15;4.95;;;2.33;;
40471;SDS011;26174;42.908;23.800;2023-07-28T10:12:42;6.93;;;2.88;;
40471;SDS011;26174;42.908;23.800;2023-07-28T10:15:13;2.25;;;1.80;;
40471;SDS011;26174;42.908;23.800;2023-07-28T10:17:46;4.03;;;2.38;;
40471;SDS011;26174;42.908;23.800;2023-07-28T10:22:53;3.92;;;2.70;;
40471;SDS011;26174;42.908;23.800;2023-07-28T10:25:25;6.97;;;3.08;;
40471;SDS011;26174;42.908;23.800;2023-07-28T10:27:51;3.20;;;2.22;;
40471;SDS011;26174;42.908;23.800;2023-07-28T10:30:17;2.20;;;2.00;;
40471;SDS011;26174;42.908;23.800;2023-07-28T10:32:43;5.28;;;2.50;;
40471;SDS011;26174;42.908;23.800;2023-07-28T10:37:38;5.72;;;2.28;;
40471;SDS011;26174;42.908;23.800;2023-07-28T10:43:04;5.22;;;2.30;;
40471;SDS011;26174;42.908;23.800;2023-07-28T10:45:30;3.70;;;2.33;;
40471;SDS011;26174;42.908;23.800;2023-07-28T10:47:57;3.05;;;2.28;;
40471;SDS011;26174;42.908;23.800;2023-07-28T10:50:28;2.80;;;2.20;;
40471;SDS011;26174;42.908;23.800;2023-07-28T10:52:55;2.20;;;1.88;;
40471;SDS011;26174;42.908;23.800;2023-07-28T10:55:22;10.18;;;2.55;;
40471;SDS011;26174;42.908;23.800;2023-07-28T10:57:50;2.38;;;1.95;;
40471;SDS011;26174;42.908;23.800;2023-07-28T11:00:17;4.20;;;2.00;;
40471;SDS011;26174;42.908;23.800;2023-07-28T11:02:50;10.07;;;2.40;;
40471;SDS011;26174;42.908;23.800;2023-07-28T11:07:47;8.85;;;2.10;;
40471;SDS011;26174;42.908;23.800;2023-07-28T11:10:13;3.15;;;2.22;;
40471;SDS011;26174;42.908;23.800;2023-07-28T11:12:43;2.80;;;2.03;;
40471;SDS011;26174;42.908;23.800;2023-07-28T11:15:09;2.35;;;2.15;;
40471;SDS011;26174;42.908;23.800;2023-07-28T11:17:40;14.75;;;2.30;;
40471;SDS011;26174;42.908;23.800;2023-07-28T11:22:57;4.45;;;2.88;;
40471;SDS011;26174;42.908;23.800;2023-07-28T11:25:24;2.75;;;2.05;;
40471;SDS011;26174;42.908;23.800;2023-07-28T11:27:50;3.75;;;2.28;;
40471;SDS011;26174;42.908;23.800;2023-07-28T11:30:16;3.72;;;2.25;;
40471;SDS011;26174;42.908;23.800;2023-07-28T11:32:44;7.38;;;2.05;;
40471;SDS011;26174;42.908;23.800;2023-07-28T11:35:11;2.70;;;2.30;;
40471;SDS011;26174;42.908;23.800;2023-07-28T11:37:38;23.25;;;2.97;;
40471;SDS011;26174;42.908;23.800;2023-07-28T11:40:05;6.35;;;2.60;;
40471;SDS011;26174;42.908;23.800;2023-07-28T11:42:46;5.82;;;2.50;;
40471;SDS011;26174;42.908;23.800;2023-07-28T11:45:13;2.42;;;2.13;;
40471;SDS011;26174;42.908;23.800;2023-07-28T11:47:50;2.65;;;2.15;;
40471;SDS011;26174;42.908;23.800;2023-07-28T11:50:23;2.63;;;2.00;;
40471;SDS011;26174;42.908;23.800;2023-07-28T11:52:49;2.60;;;2.10;;
40471;SDS011;26174;42.908;23.800;2023-07-28T11:55:15;6.95;;;2.03;;
40471;SDS011;26174;42.908;23.800;2023-07-28T11:57:42;3.15;;;2.10;;
40471;SDS011;26174;42.908;23.800;2023-07-28T12:00:08;2.30;;;1.92;;
40471;SDS011;26174;42.908;23.800;2023-07-28T12:02:34;2.17;;;1.90;;
40471;SDS011;26174;42.908;23.800;2023-07-28T12:05:00;2.03;;;1.83;;
40471;SDS011;26174;42.908;23.800;2023-07-28T12:10:04;2.53;;;2.33;;
40471;SDS011;26174;42.908;23.800;2023-07-28T12:12:44;3.47;;;3.05;;
40471;SDS011;26174;42.908;23.800;2023-07-28T12:15:20;2.72;;;1.83;;
40471;SDS011;26174;42.908;23.800;2023-07-28T12:20:34;3.35;;;2.38;;
40471;SDS011;26174;42.908;23.800;2023-07-28T12:23:00;2.22;;;2.03;;
40471;SDS011;26174;42.908;23.800;2023-07-28T12:25:26;6.88;;;1.92;;
40471;SDS011;26174;42.908;23.800;2023-07-28T12:27:52;5.07;;;2.90;;
40471;SDS011;26174;42.908;23.800;2023-07-28T12:30:17;5.38;;;2.28;;
40471;SDS011;26174;42.908;23.800;2023-07-28T12:32:43;3.20;;;1.90;;
40471;SDS011;26174;42.908;23.800;2023-07-28T12:35:09;6.00;;;2.10;;
40471;SDS011;26174;42.908;23.800;2023-07-28T12:37:34;3.10;;;2.55;;
40471;SDS011;26174;42.908;23.800;2023-07-28T12:40:00;7.28;;;2.30;;
40471;SDS011;26174;42.908;23.800;2023-07-28T12:42:26;14.05;;;2.58;;
40471;SDS011;26174;42.908;23.800;2023-07-28T12:44:52;3.60;;;2.30;;
40471;SDS011;26174;42.908;23.800;2023-07-28T12:47:17;2.80;;;2.20;;
40471;SDS011;26174;42.908;23.800;2023-07-28T12:49:42;5.65;;;2.25;;
40471;SDS011;26174;42.908;23.800;2023-07-28T12:52:08;3.17;;;2.03;;
40471;SDS011;26174;42.908;23.800;2023-07-28T12:54:52;6.00;;;2.33;;
40471;SDS011;26174;42.908;23.800;2023-07-28T12:57:17;8.20;;;2.60;;
40471;SDS011;26174;42.908;23.800;2023-07-28T12:59:43;15.80;;;3.13;;
40471;SDS011;26174;42.908;23.800;2023-07-28T13:02:08;14.00;;;2.75;;
40471;SDS011;26174;42.908;23.800;2023-07-28T13:04:34;8.13;;;2.42;;
40471;SDS011;26174;42.908;23.800;2023-07-28T13:06:59;4.10;;;2.03;;
40471;SDS011;26174;42.908;23.800;2023-07-28T13:09:25;19.55;;;2.80;;
40471;SDS011;26174;42.908;23.800;2023-07-28T13:11:50;8.65;;;2.35;;
40471;SDS011;26174;42.908;23.800;2023-07-28T13:14:16;8.77;;;2.50;;
40471;SDS011;26174;42.908;23.800;2023-07-28T13:16:41;6.55;;;2.42;;
40471;SDS011;26174;42.908;23.800;2023-07-28T13:19:07;4.25;;;2.00;;
40471;SDS011;26174;42.908;23.800;2023-07-28T13:21:32;2.70;;;2.10;;
40471;SDS011;26174;42.908;23.800;2023-07-28T13:23:58;5.70;;;2.45;;
40471;SDS011;26174;42.908;23.800;2023-07-28T13:26:24;4.97;;;2.45;;
40471;SDS011;26174;42.908;23.800;2023-07-28T13:28:57;6.13;;;2.25;;
40471;SDS011;26174;42.908;23.800;2023-07-28T13:31:27;5.10;;;2.22;;
40471;SDS011;26174;42.908;23.800;2023-07-28T13:33:53;7.18;;;3.75;;
40471;SDS011;26174;42.908;23.800;2023-07-28T13:36:18;4.13;;;2.22;;
40471;SDS011;26174;42.908;23.800;2023-07-28T13:38:44;2.53;;;2.00;;
40471;SDS011;26174;42.908;23.800;2023-07-28T13:41:09;3.38;;;2.40;;
40471;SDS011;26174;42.908;23.800;2023-07-28T13:43:35;3.80;;;2.05;;
40471;SDS011;26174;42.908;23.800;2023-07-28T13:46:03;4.75;;;2.75;;
40471;SDS011;26174;42.908;23.800;2023-07-28T13:48:29;6.35;;;2.72;;
40471;SDS011;26174;42.908;23.800;2023-07-28T13:50:55;4.15;;;2.55;;
40471;SDS011;26174;42.908;23.800;2023-07-28T13:53:21;6.80;;;2.33;;
40471;SDS011;26174;42.908;23.800;2023-07-28T13:55:47;18.40;;;3.28;;
40471;SDS011;26174;42.908;23.800;2023-07-28T13:58:12;6.40;;;2.50;;
40471;SDS011;26174;42.908;23.800;2023-07-28T14:00:38;6.05;;;2.45;;
40471;SDS011;26174;42.908;23.800;2023-07-28T14:03:03;3.60;;;2.40;;
40471;SDS011;26174;42.908;23.800;2023-07-28T14:05:28;5.88;;;2.40;;
40471;SDS011;26174;42.908;23.800;2023-07-28T14:07:54;5.28;;;2.53;;
40471;SDS011;26174;42.908;23.800;2023-07-28T14:10:20;6.20;;;3.80;;
40471;SDS011;26174;42.908;23.800;2023-07-28T14:12:45;3.35;;;2.40;;
40471;SDS011;26174;42.908;23.800;2023-07-28T14:15:18;8.07;;;2.42;;
40471;SDS011;26174;42.908;23.800;2023-07-28T14:17:44;2.83;;;2.38;;
40471;SDS011;26174;42.908;23.800;2023-07-28T14:20:10;8.68;;;2.47;;
40471;SDS011;26174;42.908;23.800;2023-07-28T14:22:36;5.32;;;2.25;;
40471;SDS011;26174;42.908;23.800;2023-07-28T14:25:02;9.63;;;2.78;;
40471;SDS011;26174;42.908;23.800;2023-07-28T14:27:27;11.52;;;3.85;;
40471;SDS011;26174;42.908;23.800;2023-07-28T14:29:53;14.20;;;6.82;;
40471;SDS011;26174;42.908;23.800;2023-07-28T14:32:18;4.28;;;2.40;;
40471;SDS011;26174;42.908;23.800;2023-07-28T14:34:44;9.10;;;2.67;;
40471;SDS011;26174;42.908;23.800;2023-07-28T14:37:10;7.32;;;2.55;;
40471;SDS011;26174;42.908;23.800;2023-07-28T14:39:36;5.55;;;2.40;;
40471;SDS011;26174;42.908;23.800;2023-07-28T14:42:02;5.63;;;2.08;;
40471;SDS011;26174;42.908;23.800;2023-07-28T14:44:28;2.33;;;2.08;;
40471;SDS011;26174;42.908;23.800;2023-07-28T14:46:54;4.10;;;2.47;;
40471;SDS011;26174;42.908;23.800;2023-07-28T14:49:19;10.18;;;3.80;;
40471;SDS011;26174;42.908;23.800;2023-07-28T14:51:45;3.75;;;2.65;;